createdAt,value
2022-12-11T00:01:14.260Z,1.50
2022-12-11T00:03:41.616Z,1.50
2022-12-11T00:06:10.448Z,1.50
2022-12-11T00:08:37.587Z,1.40
2022-12-11T00:11:05.323Z,1.20
2022-12-11T00:13:32.435Z,1.10
2022-12-11T00:15:59.585Z,1.10
2022-12-11T00:18:26.460Z,1.10
2022-12-11T00:20:53.376Z,1.10
2022-12-11T00:23:20.225Z,1.10
2022-12-11T00:25:48.213Z,1.20
2022-12-11T00:28:19.866Z,1.10
2022-12-11T00:30:46.934Z,0.00
2022-12-11T00:33:15.001Z,1.30
2022-12-11T00:35:44.941Z,1.40
2022-12-11T00:38:17.250Z,1.50
2022-12-11T00:40:44.642Z,1.50
2022-12-11T00:43:11.731Z,1.50
2022-12-11T00:45:41.247Z,1.50
2022-12-11T00:48:08.949Z,1.50
2022-12-11T00:50:36.761Z,1.60
2022-12-11T00:53:05.118Z,1.50
2022-12-11T00:55:32.423Z,1.40
2022-12-11T00:57:59.246Z,1.50
2022-12-11T01:00:26.133Z,1.50
2022-12-11T01:02:52.995Z,1.60
2022-12-11T01:05:19.839Z,1.50
2022-12-11T01:07:46.625Z,1.50
2022-12-11T01:10:26.178Z,1.50
2022-12-11T01:13:05.695Z,1.40
2022-12-11T01:15:41.328Z,1.50
2022-12-11T01:18:13.885Z,1.60
2022-12-11T01:20:42.679Z,1.60
2022-12-11T01:23:12.997Z,1.60
2022-12-11T01:25:40.407Z,1.70
2022-12-11T01:28:07.763Z,1.70
2022-12-11T01:30:35.081Z,1.80
2022-12-11T01:33:01.897Z,1.80
2022-12-11T01:35:29.302Z,1.70
2022-12-11T01:37:56.355Z,1.80
2022-12-11T01:40:23.592Z,1.80
2022-12-11T01:42:50.427Z,1.80
2022-12-11T01:45:28.991Z,1.70
2022-12-11T01:48:27.284Z,1.60
2022-12-11T01:50:57.672Z,1.70
2022-12-11T01:53:35.118Z,1.80
2022-12-11T01:56:03.087Z,1.80
2022-12-11T01:58:38.521Z,1.90
2022-12-11T02:01:05.587Z,1.70
2022-12-11T02:03:32.637Z,1.70
2022-12-11T02:06:03.365Z,0.70
2022-12-11T02:08:30.250Z,1.50
2022-12-11T02:11:18.506Z,1.50
2022-12-11T02:14:05.455Z,1.50
2022-12-11T02:16:50.673Z,1.50
2022-12-11T02:19:44.999Z,1.50
2022-12-11T02:22:17.943Z,1.50
2022-12-11T02:24:56.810Z,1.50
2022-12-11T02:27:32.724Z,1.40
2022-12-11T02:30:10.797Z,1.30
2022-12-11T02:32:39.970Z,1.30
2022-12-11T02:35:21.272Z,1.20
2022-12-11T02:37:52.729Z,1.30
2022-12-11T02:40:22.937Z,1.30
2022-12-11T02:42:52.195Z,1.40
2022-12-11T02:45:20.592Z,1.40
2022-12-11T02:47:48.974Z,1.20
2022-12-11T02:50:20.818Z,1.10
2022-12-11T02:52:50.823Z,1.00
2022-12-11T02:55:18.470Z,1.10
2022-12-11T02:57:56.506Z,1.00
2022-12-11T03:00:23.449Z,0.90
2022-12-11T03:02:50.355Z,0.90
2022-12-11T03:05:17.214Z,1.00
2022-12-11T03:07:44.829Z,1.10
2022-12-11T03:10:15.426Z,1.10
2022-12-11T03:12:47.039Z,1.10
2022-12-11T03:15:20.386Z,1.10
2022-12-11T03:18:05.120Z,1.30
2022-12-11T03:20:47.477Z,1.30
2022-12-11T03:23:38.315Z,1.30
2022-12-11T03:26:17.147Z,1.30
2022-12-11T03:29:04.554Z,1.10
2022-12-11T03:31:45.699Z,0.80
2022-12-11T03:34:21.923Z,0.80
2022-12-11T03:36:52.143Z,0.80
2022-12-11T03:39:25.787Z,0.70
2022-12-11T03:41:54.723Z,0.60
2022-12-11T03:44:24.131Z,0.70
2022-12-11T03:46:53.154Z,0.70
2022-12-11T03:49:24.379Z,0.80
2022-12-11T03:51:54.472Z,0.90
2022-12-11T03:54:23.002Z,0.90
2022-12-11T03:56:53.549Z,1.00
2022-12-11T03:59:20.561Z,1.00
2022-12-11T04:01:47.466Z,0.90
2022-12-11T04:04:14.545Z,0.90
2022-12-11T04:06:41.474Z,0.80
2022-12-11T04:09:08.475Z,0.60
2022-12-11T04:11:35.339Z,0.50
2022-12-11T04:14:26.113Z,0.50
2022-12-11T04:16:53.519Z,0.50
2022-12-11T04:19:40.575Z,0.60
2022-12-11T04:22:26.381Z,0.60
2022-12-11T04:24:53.101Z,0.50
2022-12-11T04:27:39.065Z,0.40
2022-12-11T04:30:08.962Z,0.30
2022-12-11T04:32:35.753Z,0.20
2022-12-11T04:35:02.807Z,0.10
2022-12-11T04:37:29.620Z,0.10
2022-12-11T04:39:56.417Z,0.10
2022-12-11T04:42:23.298Z,0.10
2022-12-11T04:44:50.032Z,0.20
2022-12-11T04:47:17.064Z,0.30
2022-12-11T04:49:43.858Z,0.30
2022-12-11T04:52:10.828Z,0.40
2022-12-11T04:54:37.601Z,0.30
2022-12-11T04:57:04.471Z,0.40
2022-12-11T04:59:32.654Z,0.30
2022-12-11T05:01:59.739Z,0.20
2022-12-11T05:04:30.393Z,0.20
2022-12-11T05:06:57.159Z,0.20
2022-12-11T05:09:23.939Z,0.40
2022-12-11T05:11:50.670Z,0.40
2022-12-11T05:14:17.882Z,0.40
2022-12-11T05:16:45.169Z,0.50
2022-12-11T05:19:11.966Z,0.60
2022-12-11T05:21:38.822Z,0.70
2022-12-11T05:24:06.178Z,0.70
2022-12-11T05:26:33.028Z,0.70
2022-12-11T05:28:59.810Z,0.70
2022-12-11T05:31:27.799Z,0.70
2022-12-11T05:33:54.638Z,0.70
2022-12-11T05:36:30.099Z,0.70
2022-12-11T05:38:58.168Z,0.70
2022-12-11T05:41:27.073Z,0.60
2022-12-11T05:43:54.249Z,0.60
2022-12-11T05:46:23.567Z,0.60
2022-12-11T05:48:53.967Z,0.60
2022-12-11T05:51:21.342Z,0.50
2022-12-11T05:53:50.419Z,0.40
2022-12-11T05:56:20.973Z,0.40
2022-12-11T05:58:49.150Z,0.30
2022-12-11T06:01:22.274Z,0.20
2022-12-11T06:03:49.209Z,0.10
2022-12-11T06:06:16.709Z,0.00
2022-12-11T06:08:43.643Z,-0.10
2022-12-11T06:11:13.355Z,-0.10
2022-12-11T06:13:40.279Z,-0.30
2022-12-11T06:16:08.658Z,-0.30
2022-12-11T06:18:39.891Z,-0.40
2022-12-11T06:21:14.620Z,-0.40
2022-12-11T06:23:41.987Z,-0.60
2022-12-11T06:26:10.478Z,-0.60
2022-12-11T06:28:37.514Z,-0.80
2022-12-11T06:31:04.720Z,-0.80
2022-12-11T06:33:31.869Z,-0.80
2022-12-11T06:36:13.421Z,-0.90
2022-12-11T06:38:40.386Z,-0.80
2022-12-11T06:41:08.284Z,-0.80
2022-12-11T06:43:37.618Z,-0.80
2022-12-11T06:46:09.986Z,-0.80
2022-12-11T06:48:37.015Z,-0.90
2022-12-11T06:51:18.281Z,-0.90
2022-12-11T06:53:45.905Z,-1.00
2022-12-11T06:56:14.617Z,-1.00
2022-12-11T06:58:42.871Z,-1.00
2022-12-11T07:01:24.902Z,-1.10
2022-12-11T07:03:57.142Z,-1.20
2022-12-11T07:06:25.295Z,-1.30
2022-12-11T07:08:52.506Z,-1.30
2022-12-11T07:11:20.236Z,-1.40
2022-12-11T07:13:47.336Z,-1.40
2022-12-11T07:16:15.777Z,-1.40
2022-12-11T07:18:50.397Z,-1.60
2022-12-11T07:21:17.925Z,-1.50
2022-12-11T07:23:44.741Z,-1.60
2022-12-11T07:26:13.841Z,-1.50
2022-12-11T07:28:41.457Z,-1.30
2022-12-11T07:31:28.874Z,-1.30
2022-12-11T07:33:57.637Z,-1.40
2022-12-11T07:36:25.655Z,-1.20
2022-12-11T07:38:52.918Z,-1.10
2022-12-11T07:41:20.185Z,-1.00
2022-12-11T07:43:47.984Z,-0.80
2022-12-11T07:46:18.228Z,-0.60
2022-12-11T07:48:47.130Z,-0.40
2022-12-11T07:51:16.803Z,-0.30
2022-12-11T07:53:45.186Z,-0.30
2022-12-11T07:56:12.161Z,-0.30
2022-12-11T07:58:39.005Z,-0.20
2022-12-11T08:01:06.830Z,-0.10
2022-12-11T08:03:33.665Z,0.00
2022-12-11T08:06:00.824Z,-0.10
2022-12-11T08:08:27.738Z,0.00
2022-12-11T08:10:54.626Z,0.10
2022-12-11T08:13:21.351Z,0.20
2022-12-11T08:15:48.992Z,0.30
2022-12-11T08:18:15.730Z,0.40
2022-12-11T08:20:42.553Z,0.40
2022-12-11T08:23:09.445Z,0.50
2022-12-11T08:25:36.572Z,0.40
2022-12-11T08:28:03.818Z,0.40
2022-12-11T08:30:31.530Z,0.40
2022-12-11T08:32:59.858Z,0.20
2022-12-11T08:35:27.259Z,0.10
2022-12-11T08:37:54.013Z,0.40
2022-12-11T08:40:20.910Z,0.60
2022-12-11T08:42:47.750Z,0.80
2022-12-11T08:45:14.754Z,0.90
2022-12-11T08:47:41.900Z,1.10
2022-12-11T08:50:09.362Z,1.30
2022-12-11T08:52:36.154Z,1.30
2022-12-11T08:55:03.434Z,1.30
2022-12-11T08:57:30.270Z,1.30
2022-12-11T08:59:57.051Z,1.40
2022-12-11T09:02:23.972Z,1.50
2022-12-11T09:04:50.935Z,1.50
2022-12-11T09:07:17.848Z,1.50
2022-12-11T09:09:44.666Z,1.70
2022-12-11T09:12:11.473Z,1.90
2022-12-11T09:14:38.363Z,2.00
2022-12-11T09:17:05.508Z,2.20
2022-12-11T09:19:32.725Z,2.30
2022-12-11T09:21:59.638Z,2.30
2022-12-11T09:24:26.546Z,2.50
2022-12-11T09:26:54.583Z,2.70
2022-12-11T09:29:21.615Z,3.00
2022-12-11T09:31:49.551Z,3.10
2022-12-11T09:34:16.409Z,2.90
2022-12-11T09:36:44.315Z,2.70
2022-12-11T09:39:12.391Z,2.70
2022-12-11T09:42:03.603Z,2.70
2022-12-11T09:44:51.462Z,2.60
2022-12-11T09:47:44.022Z,2.60
2022-12-11T09:50:15.313Z,2.50
2022-12-11T09:53:05.229Z,2.50
2022-12-11T09:55:42.658Z,2.20
2022-12-11T09:58:30.591Z,1.90
2022-12-11T10:01:20.523Z,1.60
2022-12-11T10:04:15.652Z,1.40
2022-12-11T10:06:53.350Z,1.50
2022-12-11T10:09:30.758Z,1.80
2022-12-11T10:12:21.043Z,1.70
2022-12-11T10:15:12.622Z,1.70
2022-12-11T10:17:41.942Z,1.90
2022-12-11T10:20:28.039Z,1.80
2022-12-11T10:22:56.829Z,1.70
2022-12-11T10:25:41.690Z,1.50
2022-12-11T10:28:16.751Z,1.30
2022-12-11T10:30:53.247Z,1.10
2022-12-11T10:33:41.512Z,1.10
2022-12-11T10:36:09.938Z,1.20
2022-12-11T10:38:42.720Z,1.40
2022-12-11T10:41:17.458Z,1.40
2022-12-11T10:43:50.072Z,1.40
2022-12-11T10:46:26.323Z,1.70
2022-12-11T10:48:56.025Z,1.70
2022-12-11T10:51:26.502Z,2.00
2022-12-11T10:53:55.923Z,2.00
2022-12-11T10:56:30.588Z,1.90
2022-12-11T10:58:59.717Z,2.20
2022-12-11T11:01:30.932Z,2.50
2022-12-11T11:04:15.407Z,2.50
2022-12-11T11:06:42.312Z,2.90
2022-12-11T11:09:29.962Z,3.20
2022-12-11T11:11:56.992Z,3.20
2022-12-11T11:14:23.898Z,3.30
2022-12-11T11:16:52.706Z,3.10
2022-12-11T11:19:34.985Z,2.80
2022-12-11T11:22:21.591Z,2.80
2022-12-11T11:24:58.399Z,2.90
2022-12-11T11:27:42.279Z,3.40
2022-12-11T11:30:41.858Z,3.70
2022-12-11T11:33:19.498Z,3.20
2022-12-11T11:36:07.582Z,2.80
2022-12-11T11:38:41.019Z,2.80
2022-12-11T11:41:17.645Z,3.00
2022-12-11T11:43:48.865Z,2.70
2022-12-11T11:46:44.451Z,2.80
2022-12-11T11:49:34.305Z,2.70
2022-12-11T11:52:17.745Z,2.60
2022-12-11T11:55:22.174Z,2.30
2022-12-11T11:58:13.443Z,2.10
2022-12-11T12:00:40.361Z,2.50
2022-12-11T12:03:11.654Z,2.90
2022-12-11T12:06:14.860Z,3.20
2022-12-11T12:09:04.969Z,3.30
2022-12-11T12:11:49.518Z,3.10
2022-12-11T12:17:31.590Z,2.80
2022-12-11T12:20:23.924Z,3.10
2022-12-11T12:23:02.718Z,3.20
2022-12-11T12:25:40.754Z,3.10
2022-12-11T12:28:34.335Z,3.00
2022-12-11T12:31:26.059Z,2.70
2022-12-11T12:34:11.272Z,2.70
2022-12-11T12:37:02.445Z,2.90
2022-12-11T12:39:35.242Z,3.10
2022-12-11T12:42:37.678Z,3.10
2022-12-11T12:45:13.207Z,3.00
2022-12-11T12:47:43.208Z,2.70
2022-12-11T12:50:13.662Z,2.60
2022-12-11T12:52:41.592Z,2.60
2022-12-11T12:55:27.164Z,2.70
2022-12-11T12:58:00.670Z,2.50
2022-12-11T13:00:39.438Z,2.70
2022-12-11T13:03:21.856Z,2.70
2022-12-11T13:06:01.590Z,2.60
2022-12-11T13:08:42.103Z,2.60
2022-12-11T13:11:12.042Z,2.60
2022-12-11T13:13:54.521Z,2.40
2022-12-11T13:16:34.528Z,2.40
2022-12-11T13:19:01.465Z,2.40
2022-12-11T13:21:34.675Z,2.20
2022-12-11T13:24:34.273Z,2.30
2022-12-11T13:27:11.911Z,2.30
2022-12-11T13:29:42.617Z,2.40
2022-12-11T13:32:09.460Z,2.10
2022-12-11T13:34:42.203Z,2.00
2022-12-11T13:37:33.126Z,2.00
2022-12-11T13:40:03.453Z,2.10
2022-12-11T13:42:48.077Z,2.10
2022-12-11T13:45:25.945Z,2.10
2022-12-11T13:47:52.790Z,2.20
2022-12-11T13:50:25.547Z,2.40
2022-12-11T13:52:57.605Z,2.30
2022-12-11T13:55:33.142Z,2.20
2022-12-11T13:58:00.858Z,1.90
2022-12-11T14:00:32.905Z,1.90
2022-12-11T14:03:04.364Z,1.90
2022-12-11T14:05:31.542Z,1.80
2022-12-11T14:08:02.656Z,1.60
2022-12-11T14:10:33.099Z,1.50
2022-12-11T14:13:05.961Z,1.50
2022-12-11T14:15:35.239Z,1.40
2022-12-11T14:18:03.295Z,1.60
2022-12-11T14:20:33.238Z,1.60
2022-12-11T14:23:17.132Z,1.60
2022-12-11T14:25:53.299Z,1.70
2022-12-11T14:28:21.038Z,1.80
2022-12-11T14:30:51.601Z,2.00
2022-12-11T14:33:22.994Z,2.00
2022-12-11T14:35:52.164Z,2.00
2022-12-11T14:38:34.151Z,1.70
2022-12-11T14:41:06.262Z,1.50
2022-12-11T14:43:40.384Z,1.30
2022-12-11T14:46:15.560Z,1.30
2022-12-11T14:48:53.809Z,1.40
2022-12-11T14:51:24.056Z,1.40
2022-12-11T14:53:53.521Z,1.40
2022-12-11T14:56:27.426Z,1.20
2022-12-11T14:58:58.413Z,1.20
2022-12-11T15:01:30.387Z,1.00
2022-12-11T15:04:04.781Z,0.90
2022-12-11T15:06:33.504Z,0.70
2022-12-11T15:09:27.228Z,0.70
2022-12-11T15:12:00.410Z,0.60
2022-12-11T15:14:27.784Z,0.30
2022-12-11T15:16:57.333Z,0.30
2022-12-11T15:19:35.621Z,0.30
2022-12-11T15:22:07.895Z,0.30
2022-12-11T15:24:34.693Z,0.30
2022-12-11T15:27:02.180Z,0.30
2022-12-11T15:29:36.387Z,0.20
2022-12-11T15:32:14.329Z,0.00
2022-12-11T15:34:49.248Z,-0.20
2022-12-11T15:37:21.584Z,-0.20
2022-12-11T15:39:48.839Z,-0.30
2022-12-11T15:42:30.018Z,-0.40
2022-12-11T15:44:57.336Z,-0.30
2022-12-11T15:47:28.369Z,-0.30
2022-12-11T15:50:21.625Z,-0.20
2022-12-11T15:52:53.486Z,-0.20
2022-12-11T15:55:26.341Z,-0.20
2022-12-11T15:57:59.316Z,-0.30
2022-12-11T16:00:28.127Z,-0.30
2022-12-11T16:02:58.670Z,-0.40
2022-12-11T16:05:28.607Z,-0.50
2022-12-11T16:07:59.431Z,-0.50
2022-12-11T16:10:27.130Z,-0.50
2022-12-11T16:12:59.237Z,-0.50
2022-12-11T16:15:29.566Z,-0.50
2022-12-11T16:18:05.903Z,-0.50
2022-12-11T16:20:35.267Z,-0.50
2022-12-11T16:23:02.598Z,-0.60
2022-12-11T16:25:30.024Z,-0.60
2022-12-11T16:27:58.414Z,-0.70
2022-12-11T16:30:26.811Z,-0.80
2022-12-11T16:32:54.263Z,-0.90
2022-12-11T16:35:22.495Z,-1.10
2022-12-11T16:37:50.887Z,-1.20
2022-12-11T16:40:18.442Z,-1.20
2022-12-11T16:42:45.740Z,-1.20
2022-12-11T16:45:14.993Z,-1.10
2022-12-11T16:47:42.399Z,-1.10
2022-12-11T16:50:10.074Z,-1.10
2022-12-11T16:52:36.940Z,-1.10
2022-12-11T16:55:04.635Z,-1.30
2022-12-11T16:57:31.582Z,-1.30
2022-12-11T16:59:58.597Z,-1.20
2022-12-11T17:02:25.593Z,-1.30
2022-12-11T17:04:54.206Z,-1.40
2022-12-11T17:07:21.149Z,-1.30
2022-12-11T17:09:48.058Z,-1.40
2022-12-11T17:12:15.018Z,-1.30
2022-12-11T17:14:43.762Z,-1.30
2022-12-11T17:17:10.643Z,-1.40
2022-12-11T17:19:37.593Z,-1.40
2022-12-11T17:22:04.662Z,-1.40
2022-12-11T17:24:31.538Z,-1.40
2022-12-11T17:26:59.688Z,-1.60
2022-12-11T17:29:26.585Z,-1.80
2022-12-11T17:31:53.544Z,-1.90
2022-12-11T17:34:20.443Z,-1.80
2022-12-11T17:36:47.330Z,-1.90
2022-12-11T17:39:14.255Z,-1.70
2022-12-11T17:41:41.061Z,-1.70
2022-12-11T17:44:07.846Z,-1.90
2022-12-11T17:46:34.816Z,-1.90
2022-12-11T17:49:04.131Z,-1.80
2022-12-11T17:51:31.027Z,-1.80
2022-12-11T17:53:58.374Z,-1.80
2022-12-11T17:56:26.005Z,-1.80
2022-12-11T17:58:53.135Z,-1.90
2022-12-11T18:01:20.400Z,-1.90
2022-12-11T18:03:47.452Z,-1.90
2022-12-11T18:06:15.906Z,-2.00
2022-12-11T18:08:44.311Z,-2.10
2022-12-11T18:11:17.005Z,-2.20
2022-12-11T18:13:44.910Z,-2.20
2022-12-11T18:16:19.241Z,-2.30
2022-12-11T18:18:47.406Z,-2.30
2022-12-11T18:21:20.579Z,-2.40
2022-12-11T18:23:48.023Z,-2.30
2022-12-11T18:26:14.990Z,-2.20
2022-12-11T18:28:43.530Z,-2.20
2022-12-11T18:31:10.917Z,-2.30
2022-12-11T18:33:38.957Z,-2.40
2022-12-11T18:36:06.379Z,-2.40
2022-12-11T18:38:33.947Z,-2.30
2022-12-11T18:41:05.501Z,-2.30
2022-12-11T18:43:32.514Z,-2.30
2022-12-11T18:45:59.522Z,-2.20
2022-12-11T18:48:26.358Z,-2.20
2022-12-11T18:50:53.319Z,-2.20
2022-12-11T18:53:20.254Z,-2.20
2022-12-11T18:55:48.715Z,-2.30
2022-12-11T18:58:17.954Z,-2.20
2022-12-11T19:00:45.646Z,-2.20
2022-12-11T19:03:14.119Z,-2.30
2022-12-11T19:05:43.652Z,-2.30
2022-12-11T19:08:13.943Z,-2.30
2022-12-11T19:10:43.377Z,-2.40
2022-12-11T19:13:10.567Z,-2.40
2022-12-11T19:15:39.528Z,-2.40
2022-12-11T19:18:07.039Z,-2.50
2022-12-11T19:20:49.277Z,-2.60
2022-12-11T19:23:17.066Z,-2.70
2022-12-11T19:25:48.477Z,-2.60
2022-12-11T19:28:15.694Z,-2.50
2022-12-11T19:30:48.855Z,-2.60
2022-12-11T19:33:16.847Z,-2.60
2022-12-11T19:35:44.410Z,-2.70
2022-12-11T19:38:13.087Z,-2.60
2022-12-11T19:40:45.659Z,-2.60
2022-12-11T19:43:12.606Z,-2.60
2022-12-11T19:45:39.407Z,-2.70
2022-12-11T19:48:06.421Z,-2.70
2022-12-11T19:50:36.286Z,-2.70
2022-12-11T19:53:04.196Z,-2.60
2022-12-11T19:55:31.073Z,-2.60
2022-12-11T19:57:58.122Z,-2.60
2022-12-11T20:00:24.978Z,-2.60
2022-12-11T20:02:51.942Z,-2.50
2022-12-11T20:05:18.986Z,-2.60
2022-12-11T20:07:45.926Z,-2.50
2022-12-11T20:10:12.963Z,-2.50
2022-12-11T20:12:40.605Z,-2.60
2022-12-11T20:15:08.041Z,-2.60
2022-12-11T20:17:36.692Z,-2.60
2022-12-11T20:20:03.962Z,-2.50
2022-12-11T20:22:30.853Z,-2.30
2022-12-11T20:24:57.678Z,-2.20
2022-12-11T20:27:26.082Z,-2.10
2022-12-11T20:29:52.911Z,-2.00
2022-12-11T20:32:19.758Z,-1.90
2022-12-11T20:34:46.633Z,-1.80
2022-12-11T20:37:13.523Z,-1.70
2022-12-11T20:39:40.456Z,-1.90
2022-12-11T20:42:09.388Z,-1.90
2022-12-11T20:44:36.227Z,-1.80
2022-12-11T20:47:03.278Z,-1.70
2022-12-11T20:49:30.109Z,-1.70
2022-12-11T20:51:57.026Z,-1.70
2022-12-11T20:54:24.005Z,-1.80
2022-12-11T20:56:51.293Z,-1.80
2022-12-11T20:59:18.771Z,-1.90
2022-12-11T21:01:45.774Z,-1.90
2022-12-11T21:04:12.810Z,-1.80
2022-12-11T21:06:41.014Z,-1.80
2022-12-11T21:09:12.146Z,-1.80
2022-12-11T21:11:39.170Z,-1.80
2022-12-11T21:14:06.622Z,-1.80
2022-12-11T21:16:36.405Z,-1.90
2022-12-11T21:19:04.442Z,-1.80
2022-12-11T21:21:33.204Z,-1.80
2022-12-11T21:24:00.177Z,-1.90
2022-12-11T21:26:26.922Z,-2.00
2022-12-11T21:28:53.826Z,-2.00
2022-12-11T21:31:20.843Z,-2.00
2022-12-11T21:33:48.295Z,-2.10
2022-12-11T21:36:15.687Z,-2.20
2022-12-11T21:38:44.219Z,-2.40
2022-12-11T21:41:20.115Z,-2.50
2022-12-11T21:45:14.629Z,-2.50
2022-12-11T21:46:35.558Z,-2.60
2022-12-11T21:49:02.457Z,-2.60
2022-12-11T21:51:37.948Z,-2.40
2022-12-11T21:54:09.192Z,-2.30
2022-12-11T21:56:36.355Z,-2.10
2022-12-11T21:59:03.411Z,-2.20
2022-12-11T22:01:37.482Z,-2.30
2022-12-11T22:04:06.678Z,-2.40
2022-12-11T22:06:34.160Z,-2.40
2022-12-11T22:09:02.412Z,-2.40
2022-12-11T22:11:32.937Z,-2.40
2022-12-11T22:13:59.932Z,-2.40
2022-12-11T22:16:27.195Z,-2.40
2022-12-11T22:18:54.295Z,-2.50
2022-12-11T22:21:21.567Z,-2.60
2022-12-11T22:23:50.665Z,-2.60
2022-12-11T22:26:22.055Z,-2.70
2022-12-11T22:28:49.095Z,-2.50
2022-12-11T22:31:19.923Z,-2.40
2022-12-11T22:33:47.498Z,-2.30
2022-12-11T22:36:14.945Z,-2.30
2022-12-11T22:38:41.870Z,-2.30
2022-12-11T22:41:38.295Z,-2.20
2022-12-11T22:44:05.247Z,-2.00
2022-12-11T22:46:32.118Z,-2.00
2022-12-11T22:48:59.415Z,-2.00
2022-12-11T22:51:26.352Z,-1.90
2022-12-11T22:53:53.096Z,-1.90
2022-12-11T22:56:20.142Z,-2.00
2022-12-11T22:58:47.138Z,-2.00
2022-12-11T23:01:18.871Z,-2.00
2022-12-11T23:03:46.809Z,-2.00
2022-12-11T23:06:16.474Z,-2.00
2022-12-11T23:08:43.860Z,-2.20
2022-12-11T23:11:18.659Z,-2.10
2022-12-11T23:13:45.586Z,-2.10
2022-12-11T23:16:12.639Z,-2.20
2022-12-11T23:18:39.682Z,-2.20
2022-12-11T23:21:07.525Z,-2.30
2022-12-11T23:23:34.951Z,-2.30
2022-12-11T23:26:02.451Z,-2.30
2022-12-11T23:28:29.241Z,-2.40
2022-12-11T23:30:56.075Z,-2.40
2022-12-11T23:33:23.202Z,-2.40
2022-12-11T23:35:49.951Z,-2.30
2022-12-11T23:38:17.524Z,-2.20
2022-12-11T23:40:44.514Z,-2.20
2022-12-11T23:43:11.441Z,-2.20
2022-12-11T23:45:38.197Z,-2.20
2022-12-11T23:48:05.055Z,-2.20
2022-12-11T23:50:32.949Z,-2.30
2022-12-11T23:53:00.307Z,-2.40
2022-12-11T23:55:27.561Z,-2.30
2022-12-11T23:57:54.529Z,-2.40
